WetterOnline ( https://www.wetteronline.de )

Wetter aktuell Grosser Arber

Aktuelles Wetter: Großer Arber (1446m)

6-stündlich | Neueste Meldungen
Ortszeit Temperatur Wetter
So, 19.09. 2:00 6.7° C wolkenlos
Sa, 18.09. 20:00 7.5° C bedeckt
Sa, 18.09. 14:00 7.6° C Nebel
Sa, 18.09. 8:00 6.6° C Nebel
Sa, 18.09. 2:00 6.6° C Nebel
Fr, 17.09. 20:00 6.2° C bedeckt
Fr, 17.09. 14:00 6.7° C bedeckt
Fr, 17.09. 8:00 6.8° C Nebel
Ortszeit Temperatur Wetter
So, 19.09. 5:00 5.4° C Nebel
So, 19.09. 4:50 5.4° C Nebel
So, 19.09. 4:40 5.4° C Nebel
So, 19.09. 4:30 5.5° C Nebel
So, 19.09. 4:20 5.5° C Nebel
So, 19.09. 4:10 5.5° C Nebel
So, 19.09. 4:00 5.6° C Nebel
So, 19.09. 3:30 5.7° C Nebel
So, 19.09. 3:00 5.9° C Nebel
So, 19.09. 2:30 6.0° C Nebel
So, 19.09. 2:00 6.7° C wolkenlos
Ortszeit Relative Feuchte Sichtweite
So, 19.09. 2:00 83% >70 km
Sa, 18.09. 20:00 96% 16 km
Sa, 18.09. 14:00 99% <100 m
Sa, 18.09. 8:00 99% <100 m
Sa, 18.09. 2:00 99% 100 m
Fr, 17.09. 20:00 97% 22 km
Fr, 17.09. 14:00 95% 28 km
Fr, 17.09. 8:00 100% <100 m
Ortszeit Relative Feuchte Sichtweite
So, 19.09. 5:00 99% <100 m
So, 19.09. 4:50 99% -
So, 19.09. 4:40 98% -
So, 19.09. 4:30 99% <100 m
So, 19.09. 4:20 99% -
So, 19.09. 4:10 99% -
So, 19.09. 4:00 99% 100 m
So, 19.09. 3:30 99% <100 m
So, 19.09. 3:00 99% <100 m
So, 19.09. 2:30 92% 0.3 km
So, 19.09. 2:00 83% >70 km
Ortszeit Niederschlagsmenge Niederschlagsart
So, 19.09. 2:00 0.0 l/m2 in 6 Std. -
Sa, 18.09. 20:00 0.1 l/m2 in 12 Std. -
Sa, 18.09. 14:00 0.1 l/m2 in 6 Std. Niederschlag
Sa, 18.09. 8:00 0.1 l/m2 in 12 Std. Niederschlag
Sa, 18.09. 2:00 0.1 l/m2 in 6 Std. Niederschlag
Fr, 17.09. 20:00 0.1 l/m2 in 12 Std. -
Fr, 17.09. 14:00 0.1 l/m2 in 6 Std. Niederschlag
Fr, 17.09. 8:00 1 l/m2 in 12 Std. -
Ortszeit Niederschlagsmenge Niederschlagsart
So, 19.09. 5:00 0.0 l/m2 in 1 Std. -
So, 19.09. 4:50 keine Meldung -
So, 19.09. 4:40 keine Meldung -
So, 19.09. 4:30 0.0 l/m2 in 1 Std. -
So, 19.09. 4:20 keine Meldung -
So, 19.09. 4:10 keine Meldung -
So, 19.09. 4:00 0.0 l/m2 in 1 Std. -
So, 19.09. 3:30 0.0 l/m2 in 1 Std. -
So, 19.09. 3:00 0.0 l/m2 in 1 Std. -
So, 19.09. 2:30 0.0 l/m2 in 1 Std. -
So, 19.09. 2:00 0.0 l/m2 in 1 Std. -
Ortszeit Stärke Spitze Richtung
km/h Bft. km/h Grad Sektor
So, 19.09. 2:00 4 1 25 60° NO
Sa, 18.09. 20:00 19 3 30 350° N
Sa, 18.09. 14:00 18 3 43 310° NW
Sa, 18.09. 8:00 24 4 43 300° NW
Sa, 18.09. 2:00 22 4 31 260° W
Fr, 17.09. 20:00 14 3 36 310° NW
Fr, 17.09. 14:00 20 4 37 270° W
Fr, 17.09. 8:00 20 4 46 310° NW
Ortszeit Stärke Spitze Richtung
km/h Bft. km/h Grad Sektor
So, 19.09. 5:00 7 2 14 70° O
So, 19.09. 4:50 7 2 - 70° O
So, 19.09. 4:40 6 1 - 80° O
So, 19.09. 4:30 6 1 13 70° O
So, 19.09. 4:20 6 1 - 70° O
So, 19.09. 4:10 7 2 - 70° O
So, 19.09. 4:00 9 2 15 70° O
So, 19.09. 3:30 7 2 14 80° O
So, 19.09. 3:00 9 2 15 80° O
So, 19.09. 2:30 4 1 7 140° SO
So, 19.09. 2:00 4 1 11 60° NO
Ortszeit Untergrenze Bedeckung Gattung
total tief tief mittel hoch
So, 19.09. 2:00 - 0/8 0/8 - - -
Sa, 18.09. 20:00 180 m 8/8 8/8 - - -
Sa, 18.09. 14:00 <30 m 8/8 0/8 - - -
Sa, 18.09. 8:00 <30 m 8/8 0/8 - - -
Sa, 18.09. 2:00 <30 m 8/8 0/8 - - -
Fr, 17.09. 20:00 30 m 8/8 8/8 - - -
Fr, 17.09. 14:00 90 m 8/8 8/8 - - -
Fr, 17.09. 8:00 <30 m 8/8 0/8 - - -
Ortszeit Bedeckungsgrad in Achtel und Wolkenuntergrenze
So, 19.09. 5:00 7(<30m)
So, 19.09. 4:50 7(<30m)
So, 19.09. 4:40 7(<30m)
So, 19.09. 4:30 7(<30m)
So, 19.09. 4:20 7(<30m)
So, 19.09. 4:10 8(<30m)
So, 19.09. 4:00 7(<30m)
So, 19.09. 3:30 8(<30m)
So, 19.09. 3:00 7(<30m)
So, 19.09. 2:30 2(<30m)
So, 19.09. 2:00 keine Wolken
Ortszeit Stationsdruck (hPa) Tendenz (hPa in 3 Std.)
So, 19.09. 2:00 855 - 0,5
Sa, 18.09. 20:00 855 0,0
Sa, 18.09. 14:00 855 + 0,3
Sa, 18.09. 8:00 854 + 0,2
Sa, 18.09. 2:00 855 - 0,3
Fr, 17.09. 20:00 855 + 0,2
Fr, 17.09. 14:00 855 - 0,3
Fr, 17.09. 8:00 855 + 0,6
Ortszeit Stationsdruck (hPa) Tendenz (hPa in 3 Std.)
So, 19.09. 5:00 854 - 0,8
So, 19.09. 4:50 854 keine Meldung
So, 19.09. 4:40 854 keine Meldung
So, 19.09. 4:30 854 - 0,7
So, 19.09. 4:20 854 keine Meldung
So, 19.09. 4:10 854 keine Meldung
So, 19.09. 4:00 854 - 0,5
So, 19.09. 3:30 854 - 0,7
So, 19.09. 3:00 854 - 0,7
So, 19.09. 2:30 855 - 0,6
So, 19.09. 2:00 855 - 0,5
Ortszeit Schneehöhe (cm)
So, 19.09. 2:00 0
Sa, 18.09. 20:00 0
Sa, 18.09. 14:00 0
Sa, 18.09. 8:00 0
Sa, 18.09. 2:00 0
Fr, 17.09. 20:00 0
Fr, 17.09. 14:00 0
Fr, 17.09. 8:00 0
Ortszeit Schneehöhe (cm)
So, 19.09. 5:00 0
So, 19.09. 4:50 0
So, 19.09. 4:40 0
So, 19.09. 4:30 0
So, 19.09. 4:20 0
So, 19.09. 4:10 0
So, 19.09. 4:00 0
So, 19.09. 3:30 0
So, 19.09. 3:00 0
So, 19.09. 2:30 0
So, 19.09. 2:00 0
Link zu dieser Seite / Seite empfehlen

Das Wetter in ...